sensor_id;sensor_type;location;lat;lon;timestamp;P1;durP1;ratioP1;P2;durP2;ratioP2
23628;SDS011;11991;57.150;-2.134;2023-03-23T00:01:09;3.75;;;0.98;;
23628;SDS011;11991;57.150;-2.134;2023-03-23T00:03:38;2.15;;;0.98;;
23628;SDS011;11991;57.150;-2.134;2023-03-23T00:06:05;4.65;;;1.23;;
23628;SDS011;11991;57.150;-2.134;2023-03-23T00:08:33;9.35;;;2.45;;
23628;SDS011;11991;57.150;-2.134;2023-03-23T00:11:03;8.20;;;2.35;;
23628;SDS011;11991;57.150;-2.134;2023-03-23T00:13:30;7.20;;;1.80;;
23628;SDS011;11991;57.150;-2.134;2023-03-23T00:15:58;3.58;;;1.20;;
23628;SDS011;11991;57.150;-2.134;2023-03-23T00:18:24;3.75;;;1.20;;
23628;SDS011;11991;57.150;-2.134;2023-03-23T00:20:52;5.78;;;2.10;;
23628;SDS011;11991;57.150;-2.134;2023-03-23T00:23:21;4.55;;;1.23;;
23628;SDS011;11991;57.150;-2.134;2023-03-23T00:25:52;4.97;;;1.30;;
23628;SDS011;11991;57.150;-2.134;2023-03-23T00:28:23;4.93;;;1.75;;
23628;SDS011;11991;57.150;-2.134;2023-03-23T00:31:09;3.63;;;1.30;;
23628;SDS011;11991;57.150;-2.134;2023-03-23T00:33:37;6.28;;;1.58;;
23628;SDS011;11991;57.150;-2.134;2023-03-23T00:36:07;7.20;;;1.98;;
23628;SDS011;11991;57.150;-2.134;2023-03-23T00:38:34;4.57;;;1.08;;
23628;SDS011;11991;57.150;-2.134;2023-03-23T00:41:01;9.07;;;1.98;;
23628;SDS011;11991;57.150;-2.134;2023-03-23T00:43:28;4.28;;;1.33;;
23628;SDS011;11991;57.150;-2.134;2023-03-23T00:45:55;3.70;;;1.20;;
23628;SDS011;11991;57.150;-2.134;2023-03-23T00:48:23;4.93;;;1.27;;
23628;SDS011;11991;57.150;-2.134;2023-03-23T00:50:51;4.72;;;1.40;;
23628;SDS011;11991;57.150;-2.134;2023-03-23T00:53:17;7.43;;;2.17;;
23628;SDS011;11991;57.150;-2.134;2023-03-23T00:55:45;7.38;;;1.98;;
23628;SDS011;11991;57.150;-2.134;2023-03-23T00:58:12;6.22;;;1.83;;
23628;SDS011;11991;57.150;-2.134;2023-03-23T01:00:39;4.70;;;1.33;;
23628;SDS011;11991;57.150;-2.134;2023-03-23T01:03:07;5.03;;;1.77;;
23628;SDS011;11991;57.150;-2.134;2023-03-23T01:05:40;3.08;;;1.17;;
23628;SDS011;11991;57.150;-2.134;2023-03-23T01:08:06;5.55;;;1.98;;
23628;SDS011;11991;57.150;-2.134;2023-03-23T01:10:33;4.20;;;1.20;;
23628;SDS011;11991;57.150;-2.134;2023-03-23T01:13:04;4.13;;;1.17;;
23628;SDS011;11991;57.150;-2.134;2023-03-23T01:15:32;5.00;;;1.25;;
23628;SDS011;11991;57.150;-2.134;2023-03-23T01:17:58;1.88;;;1.00;;
23628;SDS011;11991;57.150;-2.134;2023-03-23T01:20:24;6.10;;;1.63;;
23628;SDS011;11991;57.150;-2.134;2023-03-23T01:22:57;8.23;;;2.00;;
23628;SDS011;11991;57.150;-2.134;2023-03-23T01:25:26;4.35;;;1.50;;
23628;SDS011;11991;57.150;-2.134;2023-03-23T01:27:53;4.88;;;1.27;;
23628;SDS011;11991;57.150;-2.134;2023-03-23T01:30:20;8.90;;;1.60;;
23628;SDS011;11991;57.150;-2.134;2023-03-23T01:32:46;4.38;;;1.25;;
23628;SDS011;11991;57.150;-2.134;2023-03-23T01:35:12;1.83;;;0.90;;
23628;SDS011;11991;57.150;-2.134;2023-03-23T01:37:39;4.72;;;1.23;;
23628;SDS011;11991;57.150;-2.134;2023-03-23T01:40:05;7.78;;;1.83;;
23628;SDS011;11991;57.150;-2.134;2023-03-23T01:42:33;2.13;;;0.98;;
23628;SDS011;11991;57.150;-2.134;2023-03-23T01:47:57;12.10;;;2.95;;
23628;SDS011;11991;57.150;-2.134;2023-03-23T01:53:20;6.22;;;1.63;;
23628;SDS011;11991;57.150;-2.134;2023-03-23T01:55:49;4.78;;;1.55;;
23628;SDS011;11991;57.150;-2.134;2023-03-23T01:58:19;6.72;;;2.47;;
23628;SDS011;11991;57.150;-2.134;2023-03-23T02:00:52;3.17;;;1.40;;
23628;SDS011;11991;57.150;-2.134;2023-03-23T02:03:21;6.28;;;1.45;;
23628;SDS011;11991;57.150;-2.134;2023-03-23T02:05:49;3.78;;;1.30;;
23628;SDS011;11991;57.150;-2.134;2023-03-23T02:08:26;4.63;;;1.20;;
23628;SDS011;11991;57.150;-2.134;2023-03-23T02:10:54;4.40;;;1.55;;
23628;SDS011;11991;57.150;-2.134;2023-03-23T02:13:21;2.40;;;0.90;;
23628;SDS011;11991;57.150;-2.134;2023-03-23T02:21:13;4.95;;;1.52;;
23628;SDS011;11991;57.150;-2.134;2023-03-23T02:26:46;3.25;;;1.33;;
23628;SDS011;11991;57.150;-2.134;2023-03-23T02:34:38;4.93;;;1.58;;
23628;SDS011;11991;57.150;-2.134;2023-03-23T02:37:15;2.55;;;1.00;;
23628;SDS011;11991;57.150;-2.134;2023-03-23T02:39:51;3.55;;;1.30;;
23628;SDS011;11991;57.150;-2.134;2023-03-23T02:42:20;4.20;;;1.70;;
23628;SDS011;11991;57.150;-2.134;2023-03-23T02:44:52;3.50;;;1.10;;
23628;SDS011;11991;57.150;-2.134;2023-03-23T02:47:21;2.22;;;1.10;;
23628;SDS011;11991;57.150;-2.134;2023-03-23T02:49:50;1.45;;;0.80;;
23628;SDS011;11991;57.150;-2.134;2023-03-23T02:52:19;1.13;;;0.63;;
23628;SDS011;11991;57.150;-2.134;2023-03-23T02:54:52;1.77;;;0.85;;
23628;SDS011;11991;57.150;-2.134;2023-03-23T02:57:20;3.90;;;1.20;;
23628;SDS011;11991;57.150;-2.134;2023-03-23T02:59:53;1.77;;;0.88;;
23628;SDS011;11991;57.150;-2.134;2023-03-23T03:02:32;1.13;;;0.90;;
23628;SDS011;11991;57.150;-2.134;2023-03-23T03:10:20;1.55;;;0.70;;
23628;SDS011;11991;57.150;-2.134;2023-03-23T03:15:48;0.90;;;0.52;;
23628;SDS011;11991;57.150;-2.134;2023-03-23T03:21:40;1.00;;;0.60;;
23628;SDS011;11991;57.150;-2.134;2023-03-23T03:24:10;1.58;;;0.70;;
23628;SDS011;11991;57.150;-2.134;2023-03-23T03:26:40;0.68;;;0.50;;
23628;SDS011;11991;57.150;-2.134;2023-03-23T03:29:42;0.50;;;0.50;;
23628;SDS011;11991;57.150;-2.134;2023-03-23T03:32:13;0.35;;;0.35;;
23628;SDS011;11991;57.150;-2.134;2023-03-23T03:34:44;0.40;;;0.40;;
23628;SDS011;11991;57.150;-2.134;2023-03-23T03:37:10;0.30;;;0.30;;
23628;SDS011;11991;57.150;-2.134;2023-03-23T03:39:38;0.40;;;0.40;;
23628;SDS011;11991;57.150;-2.134;2023-03-23T03:42:05;0.30;;;0.30;;
23628;SDS011;11991;57.150;-2.134;2023-03-23T03:44:31;0.30;;;0.30;;
23628;SDS011;11991;57.150;-2.134;2023-03-23T03:46:58;0.30;;;0.30;;
23628;SDS011;11991;57.150;-2.134;2023-03-23T03:49:24;0.28;;;0.28;;
23628;SDS011;11991;57.150;-2.134;2023-03-23T03:51:53;0.30;;;0.30;;
23628;SDS011;11991;57.150;-2.134;2023-03-23T03:54:26;0.73;;;0.30;;
23628;SDS011;11991;57.150;-2.134;2023-03-23T03:56:52;0.30;;;0.30;;
23628;SDS011;11991;57.150;-2.134;2023-03-23T03:59:35;0.35;;;0.35;;
23628;SDS011;11991;57.150;-2.134;2023-03-23T04:02:27;0.25;;;0.25;;
23628;SDS011;11991;57.150;-2.134;2023-03-23T04:04:54;0.30;;;0.30;;
23628;SDS011;11991;57.150;-2.134;2023-03-23T04:07:20;0.20;;;0.20;;
23628;SDS011;11991;57.150;-2.134;2023-03-23T04:09:48;0.40;;;0.32;;
23628;SDS011;11991;57.150;-2.134;2023-03-23T04:12:18;0.30;;;0.30;;
23628;SDS011;11991;57.150;-2.134;2023-03-23T04:14:56;0.30;;;0.30;;
23628;SDS011;11991;57.150;-2.134;2023-03-23T04:17:33;0.32;;;0.32;;
23628;SDS011;11991;57.150;-2.134;2023-03-23T04:20:01;0.20;;;0.20;;
23628;SDS011;11991;57.150;-2.134;2023-03-23T04:22:37;0.30;;;0.30;;
23628;SDS011;11991;57.150;-2.134;2023-03-23T04:25:03;0.20;;;0.20;;
23628;SDS011;11991;57.150;-2.134;2023-03-23T04:27:35;0.30;;;0.30;;
23628;SDS011;11991;57.150;-2.134;2023-03-23T04:30:04;0.30;;;0.30;;
23628;SDS011;11991;57.150;-2.134;2023-03-23T04:32:57;0.30;;;0.30;;
23628;SDS011;11991;57.150;-2.134;2023-03-23T04:35:28;0.30;;;0.30;;
23628;SDS011;11991;57.150;-2.134;2023-03-23T04:38:12;0.30;;;0.30;;
23628;SDS011;11991;57.150;-2.134;2023-03-23T04:40:43;0.30;;;0.30;;
23628;SDS011;11991;57.150;-2.134;2023-03-23T04:43:25;0.30;;;0.30;;
23628;SDS011;11991;57.150;-2.134;2023-03-23T04:46:13;0.20;;;0.20;;
23628;SDS011;11991;57.150;-2.134;2023-03-23T04:48:44;0.20;;;0.20;;
23628;SDS011;11991;57.150;-2.134;2023-03-23T04:51:22;0.30;;;0.30;;
23628;SDS011;11991;57.150;-2.134;2023-03-23T04:53:51;0.30;;;0.30;;
23628;SDS011;11991;57.150;-2.134;2023-03-23T04:56:18;0.30;;;0.30;;
23628;SDS011;11991;57.150;-2.134;2023-03-23T04:58:45;0.30;;;0.30;;
23628;SDS011;11991;57.150;-2.134;2023-03-23T05:01:21;0.30;;;0.30;;
23628;SDS011;11991;57.150;-2.134;2023-03-23T05:04:01;0.20;;;0.20;;
23628;SDS011;11991;57.150;-2.134;2023-03-23T05:06:29;0.30;;;0.30;;
23628;SDS011;11991;57.150;-2.134;2023-03-23T05:09:01;0.30;;;0.30;;
23628;SDS011;11991;57.150;-2.134;2023-03-23T05:11:28;0.30;;;0.30;;
23628;SDS011;11991;57.150;-2.134;2023-03-23T05:13:54;0.30;;;0.30;;
23628;SDS011;11991;57.150;-2.134;2023-03-23T05:16:21;0.30;;;0.30;;
23628;SDS011;11991;57.150;-2.134;2023-03-23T05:18:48;0.30;;;0.30;;
23628;SDS011;11991;57.150;-2.134;2023-03-23T05:21:16;0.30;;;0.30;;
23628;SDS011;11991;57.150;-2.134;2023-03-23T05:23:48;0.30;;;0.30;;
23628;SDS011;11991;57.150;-2.134;2023-03-23T05:26:21;0.30;;;0.30;;
23628;SDS011;11991;57.150;-2.134;2023-03-23T05:28:58;0.20;;;0.20;;
23628;SDS011;11991;57.150;-2.134;2023-03-23T05:31:37;0.30;;;0.30;;
23628;SDS011;11991;57.150;-2.134;2023-03-23T05:34:03;0.30;;;0.30;;
23628;SDS011;11991;57.150;-2.134;2023-03-23T05:36:44;0.30;;;0.30;;
23628;SDS011;11991;57.150;-2.134;2023-03-23T05:39:18;0.30;;;0.30;;
23628;SDS011;11991;57.150;-2.134;2023-03-23T05:41:57;0.30;;;0.30;;
23628;SDS011;11991;57.150;-2.134;2023-03-23T05:44:30;0.30;;;0.30;;
23628;SDS011;11991;57.150;-2.134;2023-03-23T05:46:58;0.30;;;0.30;;
23628;SDS011;11991;57.150;-2.134;2023-03-23T05:49:24;0.30;;;0.30;;
23628;SDS011;11991;57.150;-2.134;2023-03-23T05:51:53;0.30;;;0.30;;
23628;SDS011;11991;57.150;-2.134;2023-03-23T05:54:19;0.30;;;0.30;;
23628;SDS011;11991;57.150;-2.134;2023-03-23T05:56:47;0.30;;;0.30;;
23628;SDS011;11991;57.150;-2.134;2023-03-23T05:59:34;0.35;;;0.30;;
23628;SDS011;11991;57.150;-2.134;2023-03-23T06:02:03;0.40;;;0.40;;
23628;SDS011;11991;57.150;-2.134;2023-03-23T06:04:29;0.30;;;0.30;;
23628;SDS011;11991;57.150;-2.134;2023-03-23T06:07:11;0.20;;;0.20;;
23628;SDS011;11991;57.150;-2.134;2023-03-23T06:09:41;0.30;;;0.30;;
23628;SDS011;11991;57.150;-2.134;2023-03-23T06:12:27;0.30;;;0.30;;
23628;SDS011;11991;57.150;-2.134;2023-03-23T06:15:22;0.40;;;0.40;;
23628;SDS011;11991;57.150;-2.134;2023-03-23T06:17:59;0.40;;;0.40;;
23628;SDS011;11991;57.150;-2.134;2023-03-23T06:20:35;0.40;;;0.40;;
23628;SDS011;11991;57.150;-2.134;2023-03-23T06:23:13;0.40;;;0.40;;
23628;SDS011;11991;57.150;-2.134;2023-03-23T06:25:41;0.30;;;0.30;;
23628;SDS011;11991;57.150;-2.134;2023-03-23T06:28:09;0.30;;;0.30;;
23628;SDS011;11991;57.150;-2.134;2023-03-23T06:30:40;0.93;;;0.43;;
23628;SDS011;11991;57.150;-2.134;2023-03-23T06:33:06;0.40;;;0.40;;
23628;SDS011;11991;57.150;-2.134;2023-03-23T06:35:53;0.35;;;0.35;;
23628;SDS011;11991;57.150;-2.134;2023-03-23T06:38:56;0.40;;;0.40;;
23628;SDS011;11991;57.150;-2.134;2023-03-23T06:41:32;0.40;;;0.40;;
23628;SDS011;11991;57.150;-2.134;2023-03-23T06:43:59;1.00;;;0.70;;
23628;SDS011;11991;57.150;-2.134;2023-03-23T06:46:29;0.65;;;0.40;;
23628;SDS011;11991;57.150;-2.134;2023-03-23T06:48:55;1.40;;;0.50;;
23628;SDS011;11991;57.150;-2.134;2023-03-23T06:51:32;0.40;;;0.40;;
23628;SDS011;11991;57.150;-2.134;2023-03-23T06:53:59;0.40;;;0.40;;
23628;SDS011;11991;57.150;-2.134;2023-03-23T06:56:29;0.40;;;0.40;;
23628;SDS011;11991;57.150;-2.134;2023-03-23T06:58:56;0.50;;;0.50;;
23628;SDS011;11991;57.150;-2.134;2023-03-23T07:01:24;0.73;;;0.40;;
23628;SDS011;11991;57.150;-2.134;2023-03-23T07:03:56;1.00;;;0.40;;
23628;SDS011;11991;57.150;-2.134;2023-03-23T07:06:34;0.40;;;0.40;;
23628;SDS011;11991;57.150;-2.134;2023-03-23T07:09:01;0.40;;;0.40;;
23628;SDS011;11991;57.150;-2.134;2023-03-23T07:11:28;0.40;;;0.40;;
23628;SDS011;11991;57.150;-2.134;2023-03-23T07:13:58;0.45;;;0.45;;
23628;SDS011;11991;57.150;-2.134;2023-03-23T07:16:24;0.55;;;0.50;;
23628;SDS011;11991;57.150;-2.134;2023-03-23T07:18:52;0.60;;;0.60;;
23628;SDS011;11991;57.150;-2.134;2023-03-23T07:21:19;0.55;;;0.50;;
23628;SDS011;11991;57.150;-2.134;2023-03-23T07:23:45;0.40;;;0.40;;
23628;SDS011;11991;57.150;-2.134;2023-03-23T07:26:18;0.30;;;0.30;;
23628;SDS011;11991;57.150;-2.134;2023-03-23T07:28:49;0.40;;;0.40;;
23628;SDS011;11991;57.150;-2.134;2023-03-23T07:31:30;0.80;;;0.50;;
23628;SDS011;11991;57.150;-2.134;2023-03-23T07:33:56;0.73;;;0.40;;
23628;SDS011;11991;57.150;-2.134;2023-03-23T07:36:28;0.38;;;0.32;;
23628;SDS011;11991;57.150;-2.134;2023-03-23T07:38:55;0.45;;;0.40;;
23628;SDS011;11991;57.150;-2.134;2023-03-23T07:41:22;0.32;;;0.32;;
23628;SDS011;11991;57.150;-2.134;2023-03-23T07:43:50;0.57;;;0.57;;
23628;SDS011;11991;57.150;-2.134;2023-03-23T07:46:31;0.57;;;0.50;;
23628;SDS011;11991;57.150;-2.134;2023-03-23T07:49:07;0.45;;;0.45;;
23628;SDS011;11991;57.150;-2.134;2023-03-23T07:51:40;1.73;;;0.73;;
23628;SDS011;11991;57.150;-2.134;2023-03-23T07:54:09;1.67;;;0.70;;
23628;SDS011;11991;57.150;-2.134;2023-03-23T07:57:02;0.60;;;0.60;;
23628;SDS011;11991;57.150;-2.134;2023-03-23T07:59:35;0.52;;;0.52;;
23628;SDS011;11991;57.150;-2.134;2023-03-23T08:02:02;0.40;;;0.40;;
23628;SDS011;11991;57.150;-2.134;2023-03-23T08:04:47;1.55;;;0.50;;
23628;SDS011;11991;57.150;-2.134;2023-03-23T08:07:31;1.27;;;0.55;;
23628;SDS011;11991;57.150;-2.134;2023-03-23T08:10:22;0.40;;;0.40;;
23628;SDS011;11991;57.150;-2.134;2023-03-23T08:13:18;0.40;;;0.40;;
23628;SDS011;11991;57.150;-2.134;2023-03-23T08:15:47;0.88;;;0.55;;
23628;SDS011;11991;57.150;-2.134;2023-03-23T08:18:35;0.30;;;0.30;;
23628;SDS011;11991;57.150;-2.134;2023-03-23T08:21:20;0.55;;;0.50;;
23628;SDS011;11991;57.150;-2.134;2023-03-23T08:24:19;1.17;;;0.40;;
23628;SDS011;11991;57.150;-2.134;2023-03-23T08:27:08;0.35;;;0.35;;
23628;SDS011;11991;57.150;-2.134;2023-03-23T08:29:37;1.60;;;0.80;;
23628;SDS011;11991;57.150;-2.134;2023-03-23T08:32:22;0.60;;;0.40;;
23628;SDS011;11991;57.150;-2.134;2023-03-23T08:35:21;2.45;;;0.50;;
23628;SDS011;11991;57.150;-2.134;2023-03-23T08:38:27;0.65;;;0.50;;
23628;SDS011;11991;57.150;-2.134;2023-03-23T08:41:13;2.22;;;0.85;;
23628;SDS011;11991;57.150;-2.134;2023-03-23T08:44:12;2.08;;;1.35;;
23628;SDS011;11991;57.150;-2.134;2023-03-23T08:46:55;0.75;;;0.50;;
23628;SDS011;11991;57.150;-2.134;2023-03-23T08:49:40;2.65;;;0.80;;
23628;SDS011;11991;57.150;-2.134;2023-03-23T08:52:28;0.73;;;0.50;;
23628;SDS011;11991;57.150;-2.134;2023-03-23T08:55:07;0.90;;;0.60;;
23628;SDS011;11991;57.150;-2.134;2023-03-23T08:57:55;0.55;;;0.40;;
23628;SDS011;11991;57.150;-2.134;2023-03-23T09:00:42;0.75;;;0.57;;
23628;SDS011;11991;57.150;-2.134;2023-03-23T09:03:46;0.75;;;0.70;;
23628;SDS011;11991;57.150;-2.134;2023-03-23T09:06:32;1.20;;;0.60;;
23628;SDS011;11991;57.150;-2.134;2023-03-23T09:08:59;2.08;;;0.70;;
23628;SDS011;11991;57.150;-2.134;2023-03-23T09:11:27;0.90;;;0.40;;
23628;SDS011;11991;57.150;-2.134;2023-03-23T09:13:53;0.47;;;0.47;;
23628;SDS011;11991;57.150;-2.134;2023-03-23T09:16:19;1.35;;;0.50;;
23628;SDS011;11991;57.150;-2.134;2023-03-23T09:18:45;2.28;;;0.70;;
23628;SDS011;11991;57.150;-2.134;2023-03-23T09:21:11;0.40;;;0.40;;
23628;SDS011;11991;57.150;-2.134;2023-03-23T09:23:37;0.30;;;0.30;;
23628;SDS011;11991;57.150;-2.134;2023-03-23T09:26:04;1.13;;;0.55;;
23628;SDS011;11991;57.150;-2.134;2023-03-23T09:28:30;1.40;;;0.60;;
23628;SDS011;11991;57.150;-2.134;2023-03-23T09:30:57;1.15;;;0.75;;
23628;SDS011;11991;57.150;-2.134;2023-03-23T09:33:24;0.63;;;0.40;;
23628;SDS011;11991;57.150;-2.134;2023-03-23T09:35:51;0.50;;;0.40;;
23628;SDS011;11991;57.150;-2.134;2023-03-23T09:38:17;2.28;;;0.70;;
23628;SDS011;11991;57.150;-2.134;2023-03-23T09:40:47;1.58;;;0.82;;
23628;SDS011;11991;57.150;-2.134;2023-03-23T09:46:04;1.88;;;0.95;;
23628;SDS011;11991;57.150;-2.134;2023-03-23T09:56:42;0.40;;;0.40;;
23628;SDS011;11991;57.150;-2.134;2023-03-23T09:59:16;0.30;;;0.30;;
23628;SDS011;11991;57.150;-2.134;2023-03-23T10:01:51;0.40;;;0.40;;
23628;SDS011;11991;57.150;-2.134;2023-03-23T10:07:40;0.50;;;0.50;;
23628;SDS011;11991;57.150;-2.134;2023-03-23T10:10:00;1.27;;;0.60;;
23628;SDS011;11991;57.150;-2.134;2023-03-23T10:14:59;0.52;;;0.50;;
23628;SDS011;11991;57.150;-2.134;2023-03-23T10:17:51;0.47;;;0.47;;
23628;SDS011;11991;57.150;-2.134;2023-03-23T10:20:35;1.55;;;0.40;;
23628;SDS011;11991;57.150;-2.134;2023-03-23T10:26:02;0.47;;;0.47;;
23628;SDS011;11991;57.150;-2.134;2023-03-23T10:28:54;0.55;;;0.50;;
23628;SDS011;11991;57.150;-2.134;2023-03-23T10:31:44;1.40;;;0.63;;
23628;SDS011;11991;57.150;-2.134;2023-03-23T10:34:24;0.90;;;0.50;;
23628;SDS011;11991;57.150;-2.134;2023-03-23T10:37:08;0.50;;;0.50;;
23628;SDS011;11991;57.150;-2.134;2023-03-23T10:39:48;0.50;;;0.50;;
23628;SDS011;11991;57.150;-2.134;2023-03-23T10:42:27;0.50;;;0.50;;
23628;SDS011;11991;57.150;-2.134;2023-03-23T10:44:59;0.47;;;0.47;;
23628;SDS011;11991;57.150;-2.134;2023-03-23T10:47:35;1.08;;;0.50;;
23628;SDS011;11991;57.150;-2.134;2023-03-23T10:50:04;1.33;;;0.43;;
23628;SDS011;11991;57.150;-2.134;2023-03-23T10:52:39;0.57;;;0.57;;
23628;SDS011;11991;57.150;-2.134;2023-03-23T10:55:11;0.57;;;0.30;;
23628;SDS011;11991;57.150;-2.134;2023-03-23T10:57:44;2.17;;;1.02;;
23628;SDS011;11991;57.150;-2.134;2023-03-23T11:00:46;1.38;;;0.60;;
23628;SDS011;11991;57.150;-2.134;2023-03-23T11:05:45;0.50;;;0.50;;
23628;SDS011;11991;57.150;-2.134;2023-03-23T11:08:19;1.48;;;0.60;;
23628;SDS011;11991;57.150;-2.134;2023-03-23T11:13:37;0.40;;;0.40;;
23628;SDS011;11991;57.150;-2.134;2023-03-23T11:16:09;0.60;;;0.60;;
23628;SDS011;11991;57.150;-2.134;2023-03-23T11:18:47;0.32;;;0.30;;
23628;SDS011;11991;57.150;-2.134;2023-03-23T11:21:13;1.60;;;0.57;;
23628;SDS011;11991;57.150;-2.134;2023-03-23T11:23:41;0.40;;;0.40;;
23628;SDS011;11991;57.150;-2.134;2023-03-23T11:26:51;0.38;;;0.38;;
23628;SDS011;11991;57.150;-2.134;2023-03-23T11:31:33;0.57;;;0.50;;
23628;SDS011;11991;57.150;-2.134;2023-03-23T11:34:18;0.95;;;0.43;;
23628;SDS011;11991;57.150;-2.134;2023-03-23T11:41:56;1.52;;;0.60;;
23628;SDS011;11991;57.150;-2.134;2023-03-23T11:44:31;1.25;;;0.60;;
23628;SDS011;11991;57.150;-2.134;2023-03-23T11:49:59;0.50;;;0.47;;
23628;SDS011;11991;57.150;-2.134;2023-03-23T11:55:20;2.58;;;1.15;;
23628;SDS011;11991;57.150;-2.134;2023-03-23T11:57:51;1.02;;;0.70;;
23628;SDS011;11991;57.150;-2.134;2023-03-23T12:00:20;1.38;;;0.80;;
23628;SDS011;11991;57.150;-2.134;2023-03-23T12:02:56;1.50;;;0.80;;
23628;SDS011;11991;57.150;-2.134;2023-03-23T12:05:47;0.60;;;0.50;;
23628;SDS011;11991;57.150;-2.134;2023-03-23T12:35:46;1.02;;;0.63;;
23628;SDS011;11991;57.150;-2.134;2023-03-23T12:54:11;1.10;;;0.65;;
23628;SDS011;11991;57.150;-2.134;2023-03-23T12:59:16;1.77;;;1.02;;
23628;SDS011;11991;57.150;-2.134;2023-03-23T13:01:45;3.20;;;0.80;;
23628;SDS011;11991;57.150;-2.134;2023-03-23T13:04:18;0.82;;;0.73;;
23628;SDS011;11991;57.150;-2.134;2023-03-23T13:06:49;1.02;;;0.85;;
23628;SDS011;11991;57.150;-2.134;2023-03-23T13:09:33;1.33;;;0.50;;
23628;SDS011;11991;57.150;-2.134;2023-03-23T13:12:13;0.68;;;0.50;;
23628;SDS011;11991;57.150;-2.134;2023-03-23T13:17:46;1.25;;;0.60;;
23628;SDS011;11991;57.150;-2.134;2023-03-23T13:23:07;1.02;;;0.70;;
23628;SDS011;11991;57.150;-2.134;2023-03-23T13:28:22;0.57;;;0.55;;
23628;SDS011;11991;57.150;-2.134;2023-03-23T13:30:58;0.40;;;0.40;;
23628;SDS011;11991;57.150;-2.134;2023-03-23T13:33:25;0.50;;;0.50;;
23628;SDS011;11991;57.150;-2.134;2023-03-23T13:35:56;1.02;;;0.50;;
23628;SDS011;11991;57.150;-2.134;2023-03-23T13:38:30;0.93;;;0.82;;
23628;SDS011;11991;57.150;-2.134;2023-03-23T13:40:57;1.42;;;0.50;;
23628;SDS011;11991;57.150;-2.134;2023-03-23T13:51:35;0.95;;;0.47;;
23628;SDS011;11991;57.150;-2.134;2023-03-23T13:56:50;1.73;;;0.60;;
23628;SDS011;11991;57.150;-2.134;2023-03-23T14:01:55;0.75;;;0.50;;
23628;SDS011;11991;57.150;-2.134;2023-03-23T14:04:42;0.50;;;0.50;;
23628;SDS011;11991;57.150;-2.134;2023-03-23T14:07:11;1.30;;;0.60;;
23628;SDS011;11991;57.150;-2.134;2023-03-23T14:09:44;0.60;;;0.50;;
23628;SDS011;11991;57.150;-2.134;2023-03-23T14:12:21;0.50;;;0.50;;
23628;SDS011;11991;57.150;-2.134;2023-03-23T14:14:55;0.85;;;0.50;;
23628;SDS011;11991;57.150;-2.134;2023-03-23T14:17:31;1.42;;;0.60;;
23628;SDS011;11991;57.150;-2.134;2023-03-23T14:20:04;1.25;;;0.70;;
23628;SDS011;11991;57.150;-2.134;2023-03-23T14:22:38;1.58;;;0.70;;
23628;SDS011;11991;57.150;-2.134;2023-03-23T14:25:14;1.08;;;0.82;;
23628;SDS011;11991;57.150;-2.134;2023-03-23T14:27:43;1.17;;;0.68;;
23628;SDS011;11991;57.150;-2.134;2023-03-23T14:30:18;1.65;;;0.80;;
23628;SDS011;11991;57.150;-2.134;2023-03-23T14:32:46;3.25;;;1.02;;
23628;SDS011;11991;57.150;-2.134;2023-03-23T14:35:21;1.88;;;1.13;;
23628;SDS011;11991;57.150;-2.134;2023-03-23T14:37:52;2.08;;;0.70;;
23628;SDS011;11991;57.150;-2.134;2023-03-23T14:40:19;3.00;;;0.80;;
23628;SDS011;11991;57.150;-2.134;2023-03-23T14:42:45;1.70;;;0.70;;
23628;SDS011;11991;57.150;-2.134;2023-03-23T14:45:15;1.05;;;0.60;;
23628;SDS011;11991;57.150;-2.134;2023-03-23T14:47:44;1.50;;;0.60;;
23628;SDS011;11991;57.150;-2.134;2023-03-23T14:53:11;1.98;;;0.85;;
23628;SDS011;11991;57.150;-2.134;2023-03-23T14:55:49;1.42;;;0.63;;
23628;SDS011;11991;57.150;-2.134;2023-03-23T14:58:19;1.63;;;0.60;;
23628;SDS011;11991;57.150;-2.134;2023-03-23T15:00:48;1.63;;;1.20;;
23628;SDS011;11991;57.150;-2.134;2023-03-23T15:03:42;2.85;;;1.25;;
23628;SDS011;11991;57.150;-2.134;2023-03-23T15:06:13;1.52;;;0.75;;
23628;SDS011;11991;57.150;-2.134;2023-03-23T15:08:42;2.40;;;0.80;;
23628;SDS011;11991;57.150;-2.134;2023-03-23T15:13:46;1.73;;;1.02;;
23628;SDS011;11991;57.150;-2.134;2023-03-23T15:16:18;1.85;;;0.90;;
23628;SDS011;11991;57.150;-2.134;2023-03-23T15:18:59;1.08;;;0.63;;
23628;SDS011;11991;57.150;-2.134;2023-03-23T15:24:01;1.15;;;0.70;;
23628;SDS011;11991;57.150;-2.134;2023-03-23T15:26:41;1.67;;;0.80;;
23628;SDS011;11991;57.150;-2.134;2023-03-23T15:31:45;3.53;;;0.93;;
23628;SDS011;11991;57.150;-2.134;2023-03-23T15:37:05;3.65;;;0.95;;
23628;SDS011;11991;57.150;-2.134;2023-03-23T15:39:44;2.47;;;0.88;;
23628;SDS011;11991;57.150;-2.134;2023-03-23T15:44:57;3.20;;;0.80;;
23628;SDS011;11991;57.150;-2.134;2023-03-23T15:52:42;3.40;;;1.23;;
23628;SDS011;11991;57.150;-2.134;2023-03-23T15:55:19;1.55;;;1.00;;
23628;SDS011;11991;57.150;-2.134;2023-03-23T15:57:46;2.05;;;0.60;;
23628;SDS011;11991;57.150;-2.134;2023-03-23T16:00:19;2.75;;;0.93;;
23628;SDS011;11991;57.150;-2.134;2023-03-23T16:02:49;3.28;;;0.73;;
23628;SDS011;11991;57.150;-2.134;2023-03-23T16:05:30;4.68;;;1.35;;
23628;SDS011;11991;57.150;-2.134;2023-03-23T16:07:58;1.58;;;0.70;;
23628;SDS011;11991;57.150;-2.134;2023-03-23T16:10:26;1.60;;;0.50;;
23628;SDS011;11991;57.150;-2.134;2023-03-23T16:12:54;0.88;;;0.60;;
23628;SDS011;11991;57.150;-2.134;2023-03-23T16:15:21;2.50;;;1.10;;
23628;SDS011;11991;57.150;-2.134;2023-03-23T16:17:48;2.88;;;1.50;;
23628;SDS011;11991;57.150;-2.134;2023-03-23T16:20:17;1.23;;;1.05;;
23628;SDS011;11991;57.150;-2.134;2023-03-23T16:22:46;2.08;;;1.05;;
23628;SDS011;11991;57.150;-2.134;2023-03-23T16:25:15;2.10;;;1.00;;
23628;SDS011;11991;57.150;-2.134;2023-03-23T16:27:44;0.85;;;0.80;;
23628;SDS011;11991;57.150;-2.134;2023-03-23T16:30:22;1.67;;;1.00;;
23628;SDS011;11991;57.150;-2.134;2023-03-23T16:32:51;1.90;;;0.90;;
23628;SDS011;11991;57.150;-2.134;2023-03-23T16:35:23;1.70;;;0.75;;
23628;SDS011;11991;57.150;-2.134;2023-03-23T16:37:51;1.25;;;0.77;;
23628;SDS011;11991;57.150;-2.134;2023-03-23T16:40:37;2.08;;;0.90;;
23628;SDS011;11991;57.150;-2.134;2023-03-23T16:43:04;1.45;;;0.80;;
23628;SDS011;11991;57.150;-2.134;2023-03-23T16:45:35;0.95;;;0.80;;
23628;SDS011;11991;57.150;-2.134;2023-03-23T16:48:04;1.73;;;1.00;;
23628;SDS011;11991;57.150;-2.134;2023-03-23T16:50:35;0.70;;;0.60;;
23628;SDS011;11991;57.150;-2.134;2023-03-23T16:53:04;3.08;;;1.00;;
23628;SDS011;11991;57.150;-2.134;2023-03-23T16:55:34;1.13;;;0.80;;
23628;SDS011;11991;57.150;-2.134;2023-03-23T16:58:02;1.27;;;0.80;;
23628;SDS011;11991;57.150;-2.134;2023-03-23T17:00:43;0.70;;;0.70;;
23628;SDS011;11991;57.150;-2.134;2023-03-23T17:03:13;1.02;;;0.80;;
23628;SDS011;11991;57.150;-2.134;2023-03-23T17:05:42;0.75;;;0.60;;
23628;SDS011;11991;57.150;-2.134;2023-03-23T17:08:10;6.53;;;1.15;;
23628;SDS011;11991;57.150;-2.134;2023-03-23T17:10:38;2.97;;;1.08;;
23628;SDS011;11991;57.150;-2.134;2023-03-23T17:13:07;2.72;;;1.00;;
23628;SDS011;11991;57.150;-2.134;2023-03-23T17:15:35;4.70;;;1.17;;
23628;SDS011;11991;57.150;-2.134;2023-03-23T17:18:04;2.97;;;0.80;;
23628;SDS011;11991;57.150;-2.134;2023-03-23T17:20:32;1.65;;;0.80;;
23628;SDS011;11991;57.150;-2.134;2023-03-23T17:23:01;2.97;;;1.00;;
23628;SDS011;11991;57.150;-2.134;2023-03-23T17:25:29;1.60;;;0.90;;
23628;SDS011;11991;57.150;-2.134;2023-03-23T17:27:57;3.80;;;1.20;;
23628;SDS011;11991;57.150;-2.134;2023-03-23T17:30:33;2.30;;;0.82;;
23628;SDS011;11991;57.150;-2.134;2023-03-23T17:33:01;2.35;;;0.90;;
23628;SDS011;11991;57.150;-2.134;2023-03-23T17:35:28;1.85;;;0.95;;
23628;SDS011;11991;57.150;-2.134;2023-03-23T17:37:56;3.30;;;1.92;;
23628;SDS011;11991;57.150;-2.134;2023-03-23T17:40:23;2.47;;;1.73;;
23628;SDS011;11991;57.150;-2.134;2023-03-23T17:42:50;4.78;;;1.85;;
23628;SDS011;11991;57.150;-2.134;2023-03-23T17:45:18;1.48;;;1.05;;